createdAt,value
2022-12-27T00:00:45.595Z,99242.66
2022-12-27T00:02:47.202Z,99252.38
2022-12-27T00:04:48.828Z,99251.78
2022-12-27T00:06:50.499Z,99250.38
2022-12-27T00:08:52.714Z,99255.44
2022-12-27T00:10:54.278Z,99262.44
2022-12-27T00:12:56.508Z,99267.53
2022-12-27T00:14:57.945Z,99279.16
2022-12-27T00:16:59.493Z,99276.63
2022-12-27T00:19:01.994Z,99278.78
2022-12-27T00:21:04.548Z,99278.66
2022-12-27T00:23:06.741Z,99285.41
2022-12-27T00:25:09.143Z,99292.16
2022-12-27T00:27:10.838Z,99287.41
2022-12-27T00:29:12.480Z,99297.13
2022-12-27T00:31:15.016Z,99303.88
2022-12-27T00:33:16.582Z,99307.25
2022-12-27T00:35:18.205Z,99303.34
2022-12-27T00:37:19.682Z,99310.34
2022-12-27T00:39:21.279Z,99324.63
2022-12-27T00:41:23.009Z,99326.16
2022-12-27T00:43:24.649Z,99329.09
2022-12-27T00:45:26.150Z,99334.41
2022-12-27T00:47:27.663Z,99347.66
2022-12-27T00:49:29.242Z,99349.13
2022-12-27T00:51:30.815Z,99349.81
2022-12-27T00:53:33.724Z,99352.19
2022-12-27T00:55:35.750Z,99366.47
2022-12-27T00:57:37.308Z,99376.16
2022-12-27T00:59:38.761Z,99368.69
2022-12-27T01:01:40.954Z,99386.31
2022-12-27T01:03:43.490Z,99385.69
2022-12-27T01:05:45.055Z,99391.00
2022-12-27T01:07:46.588Z,99391.44
2022-12-27T01:09:48.151Z,99391.88
2022-12-27T01:11:49.735Z,99403.22
2022-12-27T01:13:51.351Z,99410.38
2022-12-27T01:15:52.901Z,99415.22
2022-12-27T01:17:54.437Z,99419.22
2022-12-27T01:19:56.166Z,99412.56
2022-12-27T01:21:57.816Z,99421.19
2022-12-27T01:23:59.345Z,99420.56
2022-12-27T01:26:06.514Z,99422.06
2022-12-27T01:28:09.146Z,99433.63
2022-12-27T01:30:11.261Z,99429.25
2022-12-27T01:32:12.867Z,99437.84
2022-12-27T01:34:14.409Z,99437.44
2022-12-27T01:36:21.907Z,99440.84
2022-12-27T01:38:23.353Z,99441.28
2022-12-27T01:40:25.375Z,99444.66
2022-12-27T01:42:46.218Z,99453.88
2022-12-27T01:44:56.397Z,99455.59
2022-12-27T01:46:58.119Z,99454.16
2022-12-27T01:48:59.661Z,99461.91
2022-12-27T01:51:05.042Z,99456.06
2022-12-27T01:53:24.771Z,99459.88
2022-12-27T01:55:48.622Z,99466.59
2022-12-27T01:57:53.480Z,99475.19
2022-12-27T01:59:55.869Z,99468.53
2022-12-27T02:01:58.315Z,99473.34
2022-12-27T02:04:05.169Z,99482.78
2022-12-27T02:06:09.691Z,99474.19
2022-12-27T02:08:27.068Z,99483.25
2022-12-27T02:10:29.427Z,99488.88
2022-12-27T02:12:31.649Z,99493.47
2022-12-27T02:14:45.228Z,99486.81
2022-12-27T02:16:47.362Z,99487.25
2022-12-27T02:18:49.245Z,99500.44
2022-12-27T02:21:15.919Z,99501.06
2022-12-27T02:24:04.332Z,99507.38
2022-12-27T02:26:33.845Z,99506.34
2022-12-27T02:29:06.253Z,99511.81
2022-12-27T02:31:19.518Z,99510.56
2022-12-27T02:33:27.513Z,99516.63
2022-12-27T02:35:35.990Z,99516.22
2022-12-27T02:37:44.482Z,99523.94
2022-12-27T02:39:48.926Z,99527.28
2022-12-27T02:42:10.775Z,99526.88
2022-12-27T02:44:36.984Z,99521.25
2022-12-27T02:46:57.266Z,99521.88
2022-12-27T02:49:17.684Z,99521.69
2022-12-27T02:52:05.293Z,99525.84
2022-12-27T02:54:37.570Z,99519.41
2022-12-27T02:57:07.604Z,99527.13
2022-12-27T02:59:59.944Z,99521.47
2022-12-27T03:02:33.619Z,99529.19
2022-12-27T03:05:02.715Z,99529.63
2022-12-27T03:07:37.114Z,99529.63
2022-12-27T03:10:07.722Z,99536.53
2022-12-27T03:12:56.156Z,99542.78
2022-12-27T03:15:21.358Z,99550.47
2022-12-27T03:17:34.145Z,99547.38
2022-12-27T03:20:04.177Z,99545.06
2022-12-27T03:22:27.536Z,99561.75
2022-12-27T03:24:54.145Z,99556.09
2022-12-27T03:26:58.451Z,99564.00
2022-12-27T03:29:21.444Z,99560.69
2022-12-27T03:31:46.223Z,99563.78
2022-12-27T03:33:50.180Z,99556.50
2022-12-27T03:36:23.803Z,99565.03
2022-12-27T03:38:25.882Z,99551.03
2022-12-27T03:41:09.623Z,99556.47
2022-12-27T03:43:15.416Z,99560.41
2022-12-27T03:45:20.809Z,99553.72
2022-12-27T03:47:47.375Z,99562.28
2022-12-27T03:50:02.943Z,99565.41
2022-12-27T03:52:08.287Z,99568.28
2022-12-27T03:54:18.827Z,99582.28
2022-12-27T03:56:20.832Z,99570.78
2022-12-27T03:58:22.446Z,99587.88
2022-12-27T04:00:23.995Z,99589.97
2022-12-27T04:02:25.740Z,99597.66
2022-12-27T04:04:27.343Z,99593.28
2022-12-27T04:06:28.907Z,99592.00
2022-12-27T04:08:49.199Z,99585.31
2022-12-27T04:11:09.114Z,99588.44
2022-12-27T04:13:29.111Z,99582.38
2022-12-27T04:15:49.939Z,99584.47
2022-12-27T04:18:10.202Z,99588.19
2022-12-27T04:20:30.594Z,99593.81
2022-12-27T04:22:50.865Z,99592.13
2022-12-27T04:25:10.618Z,99584.84
2022-12-27T04:27:30.592Z,99594.38
2022-12-27T04:29:50.343Z,99598.13
2022-12-27T04:32:10.254Z,99599.16
2022-12-27T04:34:30.264Z,99596.84
2022-12-27T04:36:31.755Z,99594.97
2022-12-27T04:38:33.395Z,99596.44
2022-12-27T04:40:53.933Z,99595.59
2022-12-27T04:43:14.343Z,99589.09
2022-12-27T04:45:34.610Z,99601.16
2022-12-27T04:47:55.134Z,99592.59
2022-12-27T04:50:15.348Z,99590.94
2022-12-27T04:52:37.679Z,99584.22
2022-12-27T04:54:57.614Z,99598.81
2022-12-27T04:56:59.090Z,99597.97
2022-12-27T04:59:19.437Z,99604.63
2022-12-27T05:01:39.960Z,99605.63
2022-12-27T05:03:43.662Z,99610.41
2022-12-27T05:05:46.735Z,99608.72
2022-12-27T05:08:07.326Z,99609.78
2022-12-27T05:10:28.067Z,99610.81
2022-12-27T05:12:48.699Z,99612.88
2022-12-27T05:14:50.264Z,99609.34
2022-12-27T05:16:51.727Z,99606.84
2022-12-27T05:18:53.714Z,99606.19
2022-12-27T05:20:55.329Z,99603.50
2022-12-27T05:23:15.720Z,99607.84
2022-12-27T05:25:35.270Z,99616.19
2022-12-27T05:27:36.784Z,99614.72
2022-12-27T05:29:38.298Z,99606.59
2022-12-27T05:31:40.122Z,99615.72
2022-12-27T05:33:41.748Z,99622.00
2022-12-27T05:35:43.969Z,99619.50
2022-12-27T05:37:50.073Z,99624.69
2022-12-27T05:39:54.711Z,99634.03
2022-12-27T05:41:56.274Z,99619.03
2022-12-27T05:44:02.126Z,99624.25
2022-12-27T05:46:17.360Z,99626.31
2022-12-27T05:48:19.130Z,99629.00
2022-12-27T05:50:21.152Z,99629.00
2022-12-27T05:52:25.378Z,99633.59
2022-12-27T05:54:26.955Z,99628.38
2022-12-27T05:56:29.266Z,99635.28
2022-12-27T05:58:31.618Z,99627.41
2022-12-27T06:00:33.149Z,99626.38
2022-12-27T06:02:34.765Z,99620.75
2022-12-27T06:04:36.390Z,99627.84
2022-12-27T06:06:37.963Z,99629.34
2022-12-27T06:08:40.254Z,99632.84
2022-12-27T06:10:41.828Z,99627.44
2022-12-27T06:12:43.247Z,99631.84
2022-12-27T06:14:44.801Z,99636.63
2022-12-27T06:16:49.603Z,99632.44
2022-12-27T06:18:51.293Z,99648.22
2022-12-27T06:20:52.827Z,99651.72
2022-12-27T06:22:54.240Z,99653.13
2022-12-27T06:24:55.787Z,99649.78
2022-12-27T06:26:57.285Z,99653.34
2022-12-27T06:28:58.937Z,99649.78
2022-12-27T06:31:01.674Z,99657.69
2022-12-27T06:33:03.203Z,99651.66
2022-12-27T06:35:05.201Z,99650.81
2022-12-27T06:37:06.700Z,99646.63
2022-12-27T06:39:08.295Z,99641.41
2022-12-27T06:41:13.374Z,99657.66
2022-12-27T06:43:14.899Z,99651.59
2022-12-27T06:45:16.508Z,99660.56
2022-12-27T06:47:18.089Z,99659.72
2022-12-27T06:49:19.796Z,99665.50
2022-12-27T06:51:22.023Z,99680.47
2022-12-27T06:53:23.863Z,99674.22
2022-12-27T06:55:25.588Z,99679.63
2022-12-27T06:57:27.211Z,99674.78
2022-12-27T06:59:29.120Z,99679.81
2022-12-27T07:01:30.986Z,99680.81
2022-12-27T07:03:32.541Z,99673.00
2022-12-27T07:05:38.325Z,99675.50
2022-12-27T07:07:40.087Z,99673.25
2022-12-27T07:09:41.834Z,99677.59
2022-12-27T07:11:43.343Z,99672.03
2022-12-27T07:13:48.358Z,99679.09
2022-12-27T07:15:49.927Z,99679.75
2022-12-27T07:17:51.512Z,99682.47
2022-12-27T07:19:53.358Z,99688.31
2022-12-27T07:21:55.195Z,99690.63
2022-12-27T07:23:57.366Z,99689.63
2022-12-27T07:26:10.926Z,99687.53
2022-12-27T07:28:12.483Z,99696.09
2022-12-27T07:30:14.095Z,99701.31
2022-12-27T07:32:15.663Z,99704.47
2022-12-27T07:34:17.192Z,99707.84
2022-12-27T07:36:21.667Z,99710.13
2022-12-27T07:38:23.138Z,99714.53
2022-12-27T07:40:25.217Z,99715.16
2022-12-27T07:42:28.707Z,99714.56
2022-12-27T07:44:30.166Z,99712.31
2022-12-27T07:46:32.945Z,99710.88
2022-12-27T07:48:35.612Z,99715.06
2022-12-27T07:50:37.378Z,99714.69
2022-12-27T07:52:38.916Z,99710.56
2022-12-27T07:54:41.415Z,99716.84
2022-12-27T07:56:43.041Z,99723.31
2022-12-27T07:58:46.980Z,99725.00
2022-12-27T08:00:50.733Z,99723.75
2022-12-27T08:02:52.330Z,99724.22
2022-12-27T08:04:54.052Z,99729.22
2022-12-27T08:07:17.102Z,99728.00
2022-12-27T08:09:36.902Z,99733.88
2022-12-27T08:11:39.625Z,99742.63
2022-12-27T08:13:41.140Z,99744.94
2022-12-27T08:15:43.609Z,99741.00
2022-12-27T08:17:45.222Z,99744.16
2022-12-27T08:19:47.398Z,99746.47
2022-12-27T08:21:48.951Z,99741.69
2022-12-27T08:23:52.346Z,99744.19
2022-12-27T08:25:55.107Z,99742.97
2022-12-27T08:28:07.759Z,99743.59
2022-12-27T08:30:09.923Z,99742.19
2022-12-27T08:32:11.656Z,99742.59
2022-12-27T08:34:13.368Z,99737.63
2022-12-27T08:36:52.954Z,99741.59
2022-12-27T08:38:36.544Z,99746.19
2022-12-27T08:40:43.422Z,99747.66
2022-12-27T08:42:45.023Z,99757.09
2022-12-27T08:44:46.588Z,99769.19
2022-12-27T08:46:48.089Z,99762.75
2022-12-27T08:48:50.761Z,99760.69
2022-12-27T08:50:52.402Z,99757.75
2022-12-27T08:52:58.029Z,99766.34
2022-12-27T08:54:59.516Z,99764.06
2022-12-27T08:57:01.025Z,99764.50
2022-12-27T08:59:02.488Z,99768.28
2022-12-27T09:01:11.134Z,99771.84
2022-12-27T09:03:12.807Z,99777.50
2022-12-27T09:05:14.504Z,99775.00
2022-12-27T09:07:16.096Z,99778.16
2022-12-27T09:09:17.835Z,99786.72
2022-12-27T09:11:22.753Z,99784.25
2022-12-27T09:13:24.278Z,99787.19
2022-12-27T09:15:25.911Z,99788.44
2022-12-27T09:17:49.911Z,99793.28
2022-12-27T09:19:51.476Z,99796.25
2022-12-27T09:21:52.990Z,99803.56
2022-12-27T09:23:54.823Z,99798.16
2022-12-27T09:25:58.890Z,99806.53
2022-12-27T09:28:00.448Z,99802.38
2022-12-27T09:30:03.543Z,99800.94
2022-12-27T09:32:05.418Z,99801.97
2022-12-27T09:34:06.959Z,99798.66
2022-12-27T09:36:26.396Z,99794.47
2022-12-27T09:38:27.954Z,99806.59
2022-12-27T09:40:29.511Z,99803.69
2022-12-27T09:42:56.208Z,99797.03
2022-12-27T09:45:15.553Z,99799.13
2022-12-27T09:47:33.041Z,99800.38
2022-12-27T09:49:41.441Z,99808.56
2022-12-27T09:52:14.719Z,99805.00
2022-12-27T09:54:25.449Z,99806.91
2022-12-27T09:56:47.408Z,99796.25
2022-12-27T09:58:55.326Z,99793.34
2022-12-27T10:00:56.971Z,99786.00
2022-12-27T10:02:59.406Z,99784.75
2022-12-27T10:05:20.740Z,99770.34
2022-12-27T10:07:50.381Z,99774.53
2022-12-27T10:09:51.845Z,99776.59
2022-12-27T10:12:05.896Z,99782.03
2022-12-27T10:14:33.785Z,99781.41
2022-12-27T10:17:15.769Z,99779.91
2022-12-27T10:19:26.162Z,99771.34
2022-12-27T10:21:34.378Z,99776.97
2022-12-27T10:23:38.669Z,99778.66
2022-12-27T10:25:41.307Z,99773.84
2022-12-27T10:27:43.386Z,99770.72
2022-12-27T10:29:45.355Z,99770.28
2022-12-27T10:31:46.906Z,99769.88
2022-12-27T10:33:50.508Z,99763.97
2022-12-27T10:35:52.237Z,99767.53
2022-12-27T10:37:54.059Z,99767.34
2022-12-27T10:40:08.603Z,99765.25
2022-12-27T10:42:38.428Z,99760.19
2022-12-27T10:44:40.126Z,99758.94
2022-12-27T10:46:44.589Z,99748.69
2022-12-27T10:51:23.384Z,99748.06
2022-12-27T10:53:36.509Z,99749.69
2022-12-27T10:55:39.165Z,99748.25
2022-12-27T10:57:40.638Z,99749.69
2022-12-27T10:59:42.103Z,99745.72
2022-12-27T11:02:05.023Z,99738.38
2022-12-27T11:04:15.971Z,99740.28
2022-12-27T11:06:24.727Z,99742.56
2022-12-27T11:08:26.425Z,99740.47
2022-12-27T11:10:33.251Z,99744.41
2022-12-27T11:12:36.215Z,99744.84
2022-12-27T11:14:37.761Z,99734.56
2022-12-27T11:16:40.996Z,99727.22
2022-12-27T11:18:52.722Z,99733.50
2022-12-27T11:20:57.171Z,99728.69
2022-12-27T11:23:11.451Z,99733.91
2022-12-27T11:25:15.327Z,99736.63
2022-12-27T11:27:24.439Z,99734.75
2022-12-27T11:29:28.218Z,99732.84
2022-12-27T11:31:36.533Z,99732.25
2022-12-27T11:33:47.321Z,99738.06
2022-12-27T11:35:52.354Z,99734.31
2022-12-27T11:37:53.968Z,99731.16
2022-12-27T11:40:20.416Z,99733.44
2022-12-27T11:42:38.683Z,99730.50
2022-12-27T11:44:49.908Z,99729.25
2022-12-27T11:47:31.514Z,99728.16
2022-12-27T11:49:40.230Z,99733.19
2022-12-27T11:52:06.585Z,99726.47
2022-12-27T11:54:40.309Z,99727.72
2022-12-27T11:57:23.286Z,99731.06
2022-12-27T11:59:41.077Z,99729.13
2022-12-27T12:02:13.560Z,99727.63
2022-12-27T12:04:24.538Z,99726.75
2022-12-27T12:06:48.299Z,99728.44
2022-12-27T12:09:23.279Z,99728.66
2022-12-27T12:11:57.165Z,99736.75
2022-12-27T12:14:33.636Z,99726.03
2022-12-27T12:17:09.279Z,99735.47
2022-12-27T12:19:30.695Z,99725.34
2022-12-27T12:22:24.457Z,99722.78
2022-12-27T12:24:37.304Z,99725.69
2022-12-27T12:27:02.125Z,99722.28
2022-12-27T12:29:28.636Z,99715.94
2022-12-27T12:32:10.594Z,99718.84
2022-12-27T12:34:36.133Z,99713.31
2022-12-27T12:37:05.739Z,99712.44
2022-12-27T12:39:32.924Z,99726.22
2022-12-27T12:41:51.918Z,99720.31
2022-12-27T12:44:28.347Z,99716.09
2022-12-27T12:46:54.817Z,99721.09
2022-12-27T12:49:17.890Z,99715.16
2022-12-27T12:51:35.419Z,99714.28
2022-12-27T12:53:36.830Z,99714.44
2022-12-27T12:55:51.522Z,99713.75
2022-12-27T12:58:23.886Z,99713.31
2022-12-27T13:00:42.598Z,99705.28
2022-12-27T13:03:16.366Z,99715.50
2022-12-27T13:05:38.401Z,99707.91
2022-12-27T13:08:04.699Z,99708.91
2022-12-27T13:10:37.091Z,99713.31
2022-12-27T13:12:53.063Z,99709.91
2022-12-27T13:15:13.329Z,99715.13
2022-12-27T13:17:24.295Z,99715.50
2022-12-27T13:19:50.068Z,99707.06
2022-12-27T13:22:34.238Z,99701.41
2022-12-27T13:24:59.581Z,99706.41
2022-12-27T13:27:15.573Z,99702.59
2022-12-27T13:29:38.747Z,99711.19
2022-12-27T13:32:02.104Z,99712.84
2022-12-27T13:34:20.024Z,99711.34
2022-12-27T13:36:33.577Z,99712.78
2022-12-27T13:38:50.646Z,99713.16
2022-12-27T13:41:10.658Z,99714.59
2022-12-27T13:43:51.030Z,99713.50
2022-12-27T13:46:12.619Z,99707.03
2022-12-27T13:49:06.751Z,99717.34
2022-12-27T13:51:11.111Z,99718.97
2022-12-27T13:53:29.842Z,99720.69
2022-12-27T13:55:52.130Z,99727.00
2022-12-27T13:58:13.788Z,99725.72
2022-12-27T14:00:22.943Z,99717.78
2022-12-27T14:03:01.820Z,99719.91
2022-12-27T14:05:15.120Z,99713.63
2022-12-27T14:07:53.836Z,99712.38
2022-12-27T14:10:18.540Z,99717.00
2022-12-27T14:12:59.556Z,99714.75
2022-12-27T14:15:06.651Z,99721.28
2022-12-27T14:17:30.873Z,99726.72
2022-12-27T14:19:57.429Z,99726.97
2022-12-27T14:22:16.473Z,99728.03
2022-12-27T14:24:43.389Z,99727.41
2022-12-27T14:27:30.842Z,99723.84
2022-12-27T14:29:59.621Z,99722.16
2022-12-27T14:32:13.013Z,99726.81
2022-12-27T14:34:59.889Z,99733.56
2022-12-27T14:37:19.618Z,99737.59
2022-12-27T14:39:42.573Z,99746.00
2022-12-27T14:42:08.825Z,99743.72
2022-12-27T14:44:37.964Z,99739.19
2022-12-27T14:47:08.352Z,99740.00
2022-12-27T14:49:26.301Z,99739.38
2022-12-27T14:52:12.136Z,99725.38
2022-12-27T14:54:53.854Z,99738.41
2022-12-27T14:57:15.282Z,99728.78
2022-12-27T14:59:35.440Z,99725.44
2022-12-27T15:01:58.154Z,99733.00
2022-12-27T15:04:27.382Z,99730.72
2022-12-27T15:06:53.715Z,99727.63
2022-12-27T15:09:19.896Z,99727.63
2022-12-27T15:11:51.683Z,99729.38
2022-12-27T15:14:07.066Z,99716.78
2022-12-27T15:16:40.913Z,99724.00
2022-12-27T15:18:49.255Z,99726.31
2022-12-27T15:21:19.695Z,99731.38
2022-12-27T15:23:35.057Z,99735.03
2022-12-27T15:25:45.903Z,99735.47
2022-12-27T15:28:00.605Z,99729.59
2022-12-27T15:30:38.765Z,99726.28
2022-12-27T15:32:58.269Z,99725.06
2022-12-27T15:35:23.322Z,99720.66
2022-12-27T15:37:52.733Z,99722.16
2022-12-27T15:39:54.404Z,99723.22
2022-12-27T15:42:04.787Z,99730.38
2022-12-27T15:44:14.377Z,99725.41
2022-12-27T15:46:39.620Z,99722.50
2022-12-27T15:49:05.965Z,99725.88
2022-12-27T15:51:29.031Z,99712.91
2022-12-27T15:54:08.239Z,99712.09
2022-12-27T15:56:26.204Z,99711.72
2022-12-27T15:58:27.973Z,99711.72
2022-12-27T16:00:34.245Z,99708.81
2022-12-27T16:02:48.012Z,99713.66
2022-12-27T16:05:14.441Z,99703.56
2022-12-27T16:07:39.789Z,99710.97
2022-12-27T16:09:41.385Z,99704.06
2022-12-27T16:12:00.500Z,99708.06
2022-12-27T16:14:24.345Z,99702.66
2022-12-27T16:16:26.007Z,99712.72
2022-12-27T16:18:46.281Z,99704.13
2022-12-27T16:20:56.819Z,99710.00
2022-12-27T16:23:02.167Z,99717.78
2022-12-27T16:25:28.618Z,99717.63
2022-12-27T16:27:35.107Z,99715.94
2022-12-27T16:29:43.739Z,99718.03
2022-12-27T16:31:49.494Z,99722.28
2022-12-27T16:33:58.989Z,99724.81
2022-12-27T16:36:13.527Z,99724.16
2022-12-27T16:38:22.421Z,99713.94
2022-12-27T16:40:38.088Z,99716.47
2022-12-27T16:42:48.835Z,99724.03
2022-12-27T16:45:02.983Z,99720.69
2022-12-27T16:47:26.075Z,99722.41
2022-12-27T16:49:39.335Z,99720.94
2022-12-27T16:52:25.313Z,99716.34
2022-12-27T16:54:44.988Z,99724.56
2022-12-27T16:56:48.319Z,99714.50
2022-12-27T16:58:50.237Z,99712.63
2022-12-27T17:00:59.713Z,99712.88
2022-12-27T17:03:21.477Z,99698.22
2022-12-27T17:05:35.454Z,99707.44
2022-12-27T17:07:57.308Z,99704.75
2022-12-27T17:10:27.658Z,99699.97
2022-12-27T17:12:29.277Z,99705.81
2022-12-27T17:14:37.049Z,99703.53
2022-12-27T17:16:55.303Z,99703.31
2022-12-27T17:19:04.079Z,99698.31
2022-12-27T17:21:23.314Z,99697.06
2022-12-27T17:23:28.465Z,99688.50
2022-12-27T17:25:41.723Z,99688.06
2022-12-27T17:28:10.443Z,99692.06
2022-12-27T17:30:20.625Z,99694.16
2022-12-27T17:32:55.882Z,99693.53
2022-12-27T17:35:14.331Z,99687.47
2022-12-27T17:37:28.135Z,99683.69
2022-12-27T17:40:02.123Z,99672.63
2022-12-27T17:42:38.076Z,99677.03
2022-12-27T17:45:31.402Z,99672.00
2022-12-27T17:48:00.836Z,99674.53
2022-12-27T17:50:06.176Z,99672.84
2022-12-27T17:52:34.510Z,99672.03
2022-12-27T17:54:57.719Z,99674.75
2022-12-27T17:57:19.439Z,99674.75
2022-12-27T17:59:25.789Z,99672.47
2022-12-27T18:01:29.886Z,99670.16
2022-12-27T18:03:39.476Z,99670.16
2022-12-27T18:05:43.720Z,99669.53
2022-12-27T18:07:45.449Z,99666.19
2022-12-27T18:09:49.697Z,99662.88
2022-12-27T18:11:51.352Z,99660.34
2022-12-27T18:13:56.612Z,99655.75
2022-12-27T18:15:58.669Z,99661.19
2022-12-27T18:18:07.035Z,99653.66
2022-12-27T18:20:26.639Z,99663.31
2022-12-27T18:22:28.505Z,99662.66
2022-12-27T18:24:32.718Z,99662.25
2022-12-27T18:26:40.875Z,99666.84
2022-12-27T18:28:43.455Z,99668.94
2022-12-27T18:30:55.564Z,99668.53
2022-12-27T18:32:57.921Z,99664.97
2022-12-27T18:35:02.838Z,99663.72
2022-12-27T18:37:11.261Z,99661.66
2022-12-27T18:39:29.667Z,99652.88
2022-12-27T18:41:40.494Z,99659.75
2022-12-27T18:43:44.875Z,99659.34
2022-12-27T18:45:46.543Z,99658.91
2022-12-27T18:47:50.965Z,99660.78
2022-12-27T18:50:03.856Z,99652.22
2022-12-27T18:52:14.275Z,99655.13
2022-12-27T18:54:28.003Z,99653.03
2022-12-27T18:56:34.912Z,99656.38
2022-12-27T18:58:36.474Z,99656.19
2022-12-27T19:00:49.693Z,99656.81
2022-12-27T19:02:53.150Z,99657.84
2022-12-27T19:05:24.091Z,99658.66
2022-12-27T19:07:25.904Z,99654.47
2022-12-27T19:09:35.174Z,99646.97
2022-12-27T19:11:38.253Z,99645.31
2022-12-27T19:13:49.024Z,99643.84
2022-12-27T19:15:51.801Z,99643.19
2022-12-27T19:17:58.167Z,99642.78
2022-12-27T19:20:06.622Z,99645.69
2022-12-27T19:22:46.625Z,99648.00
2022-12-27T19:24:48.172Z,99650.06
2022-12-27T19:26:51.305Z,99645.47
2022-12-27T19:29:08.965Z,99652.75
2022-12-27T19:31:21.930Z,99657.38
2022-12-27T19:33:29.965Z,99645.25
2022-12-27T19:35:31.634Z,99653.59
2022-12-27T19:37:33.612Z,99654.84
2022-12-27T19:39:37.872Z,99660.69
2022-12-27T19:45:05.554Z,99674.03
2022-12-27T19:47:12.327Z,99671.06
2022-12-27T19:51:37.284Z,99679.16
2022-12-27T19:53:45.288Z,99680.22
2022-12-27T19:55:48.379Z,99674.75
2022-12-27T19:57:49.969Z,99676.22
2022-12-27T19:59:51.441Z,99669.50
2022-12-27T20:01:53.590Z,99660.75
2022-12-27T20:03:55.419Z,99660.13
2022-12-27T20:06:11.747Z,99658.47
2022-12-27T20:08:37.924Z,99654.31
2022-12-27T20:10:39.540Z,99650.56
2022-12-27T20:13:28.102Z,99648.88
2022-12-27T20:15:31.188Z,99650.13
2022-12-27T20:17:32.817Z,99645.75
2022-12-27T20:19:34.697Z,99640.13
2022-12-27T20:21:36.293Z,99640.13
2022-12-27T20:23:38.036Z,99637.81
2022-12-27T20:25:43.120Z,99635.47
2022-12-27T20:27:44.843Z,99630.47
2022-12-27T20:29:46.487Z,99631.69
2022-12-27T20:31:50.104Z,99628.16
2022-12-27T20:33:55.716Z,99621.69
2022-12-27T20:36:23.625Z,99617.53
2022-12-27T20:38:26.142Z,99613.97
2022-12-27T20:40:28.022Z,99607.47
2022-12-27T20:42:29.687Z,99606.66
2022-12-27T20:44:31.343Z,99605.38
2022-12-27T20:46:32.836Z,99603.91
2022-12-27T20:48:38.070Z,99599.31
2022-12-27T20:50:40.832Z,99600.78
2022-12-27T20:52:42.303Z,99601.38
2022-12-27T20:54:43.894Z,99595.13
2022-12-27T20:56:45.503Z,99589.47
2022-12-27T20:58:47.175Z,99591.75
2022-12-27T21:00:48.680Z,99579.22
2022-12-27T21:02:50.391Z,99585.88
2022-12-27T21:04:51.866Z,99587.97
2022-12-27T21:06:53.468Z,99584.00
2022-12-27T21:08:57.770Z,99589.81
2022-12-27T21:11:06.175Z,99583.13
2022-12-27T21:13:07.822Z,99587.25
2022-12-27T21:15:10.691Z,99582.22
2022-12-27T21:17:12.516Z,99580.13
2022-12-27T21:19:14.168Z,99577.19
2022-12-27T21:21:19.815Z,99582.81
2022-12-27T21:23:21.499Z,99578.81
2022-12-27T21:25:23.041Z,99584.22
2022-12-27T21:27:24.621Z,99576.69
2022-12-27T21:29:26.152Z,99581.91
2022-12-27T21:31:28.685Z,99577.53
2022-12-27T21:33:30.813Z,99572.53
2022-12-27T21:35:32.318Z,99575.22
2022-12-27T21:37:33.786Z,99568.13
2022-12-27T21:39:35.560Z,99568.34
2022-12-27T21:41:39.365Z,99567.88
2022-12-27T21:43:41.476Z,99569.78
2022-12-27T21:45:42.929Z,99575.75
2022-12-27T21:47:44.338Z,99566.84
2022-12-27T21:49:45.908Z,99561.19
2022-12-27T21:51:47.553Z,99552.22
2022-12-27T21:53:49.210Z,99557.00
2022-12-27T21:55:58.340Z,99557.19
2022-12-27T21:57:59.708Z,99556.16
2022-12-27T22:00:01.294Z,99546.09
2022-12-27T22:02:02.870Z,99549.03
2022-12-27T22:04:04.747Z,99557.72
2022-12-27T22:06:16.947Z,99551.03
2022-12-27T22:08:18.589Z,99541.66
2022-12-27T22:10:20.229Z,99551.81
2022-12-27T22:12:21.776Z,99549.47
2022-12-27T22:14:25.776Z,99539.69
2022-12-27T22:16:31.606Z,99540.53
2022-12-27T22:18:34.982Z,99540.91
2022-12-27T22:20:37.789Z,99537.56
2022-12-27T22:22:42.137Z,99528.19
2022-12-27T22:24:43.699Z,99527.34
2022-12-27T22:26:45.333Z,99518.38
2022-12-27T22:28:47.082Z,99522.53
2022-12-27T22:30:51.811Z,99512.94
2022-12-27T22:32:54.199Z,99515.81
2022-12-27T22:34:55.995Z,99514.97
2022-12-27T22:36:57.444Z,99519.56
2022-12-27T22:38:59.673Z,99523.28
2022-12-27T22:41:16.468Z,99537.22
2022-12-27T22:43:17.952Z,99541.13
2022-12-27T22:45:19.561Z,99539.66
2022-12-27T22:47:28.689Z,99534.88
2022-12-27T22:49:30.388Z,99529.91
2022-12-27T22:51:34.503Z,99531.94
2022-12-27T22:53:36.275Z,99525.25
2022-12-27T22:55:41.146Z,99518.16
2022-12-27T22:57:42.742Z,99512.75
2022-12-27T22:59:44.349Z,99518.56
2022-12-27T23:01:46.212Z,99529.56
2022-12-27T23:03:48.217Z,99526.84
2022-12-27T23:06:00.182Z,99528.47
2022-12-27T23:08:06.126Z,99531.16
2022-12-27T23:10:09.585Z,99528.47
2022-12-27T23:12:11.924Z,99525.59
2022-12-27T23:14:15.978Z,99518.88
2022-12-27T23:16:17.597Z,99527.19
2022-12-27T23:18:19.201Z,99517.00
2022-12-27T23:20:20.750Z,99517.84
2022-12-27T23:22:22.318Z,99522.03
2022-12-27T23:24:23.855Z,99522.69
2022-12-27T23:26:25.985Z,99526.00
2022-12-27T23:28:27.704Z,99518.97
2022-12-27T23:30:29.330Z,99520.59
2022-12-27T23:32:30.859Z,99520.44
2022-12-27T23:34:32.385Z,99526.00
2022-12-27T23:36:34.315Z,99516.88
2022-12-27T23:38:35.886Z,99513.34
2022-12-27T23:40:37.437Z,99520.22
2022-12-27T23:42:39.037Z,99514.63
2022-12-27T23:44:40.661Z,99506.53
2022-12-27T23:46:42.434Z,99502.78
2022-12-27T23:48:49.608Z,99501.75
2022-12-27T23:50:51.312Z,99486.75
2022-12-27T23:52:52.940Z,99485.72
2022-12-27T23:54:54.419Z,99487.59
2022-12-27T23:56:56.151Z,99484.69
2022-12-27T23:58:59.687Z,99476.78
